sensor_id;sensor_type;location;lat;lon;timestamp;P1;durP1;ratioP1;P2;durP2;ratioP2
43861;SDS011;29510;52.140;5.034;2023-07-13T00:08:36;11.30;;;2.63;;
43861;SDS011;29510;52.140;5.034;2023-07-13T00:18:58;8.68;;;2.60;;
43861;SDS011;29510;52.140;5.034;2023-07-13T00:29:21;9.85;;;1.98;;
43861;SDS011;29510;52.140;5.034;2023-07-13T00:39:42;9.85;;;1.92;;
43861;SDS011;29510;52.140;5.034;2023-07-13T00:50:04;7.20;;;2.30;;
43861;SDS011;29510;52.140;5.034;2023-07-13T01:00:31;9.32;;;2.10;;
43861;SDS011;29510;52.140;5.034;2023-07-13T01:10:53;10.18;;;2.00;;
43861;SDS011;29510;52.140;5.034;2023-07-13T01:21:15;9.52;;;2.03;;
43861;SDS011;29510;52.140;5.034;2023-07-13T01:31:37;10.77;;;2.13;;
43861;SDS011;29510;52.140;5.034;2023-07-13T01:41:59;9.93;;;2.78;;
43861;SDS011;29510;52.140;5.034;2023-07-13T01:52:22;11.77;;;2.83;;
43861;SDS011;29510;52.140;5.034;2023-07-13T02:02:43;8.45;;;2.60;;
43861;SDS011;29510;52.140;5.034;2023-07-13T02:13:06;7.72;;;2.50;;
43861;SDS011;29510;52.140;5.034;2023-07-13T02:23:27;10.15;;;2.33;;
43861;SDS011;29510;52.140;5.034;2023-07-13T02:33:49;7.05;;;2.70;;
43861;SDS011;29510;52.140;5.034;2023-07-13T02:44:12;11.95;;;2.40;;
43861;SDS011;29510;52.140;5.034;2023-07-13T02:54:34;7.68;;;2.35;;
43861;SDS011;29510;52.140;5.034;2023-07-13T03:04:56;7.88;;;2.45;;
43861;SDS011;29510;52.140;5.034;2023-07-13T03:15:17;7.63;;;2.60;;
43861;SDS011;29510;52.140;5.034;2023-07-13T03:25:38;9.02;;;3.30;;
43861;SDS011;29510;52.140;5.034;2023-07-13T03:36:00;9.23;;;2.80;;
43861;SDS011;29510;52.140;5.034;2023-07-13T03:46:22;8.48;;;2.55;;
43861;SDS011;29510;52.140;5.034;2023-07-13T03:56:44;11.45;;;3.08;;
43861;SDS011;29510;52.140;5.034;2023-07-13T04:07:05;8.90;;;2.45;;
43861;SDS011;29510;52.140;5.034;2023-07-13T04:17:42;13.20;;;3.13;;
43861;SDS011;29510;52.140;5.034;2023-07-13T04:28:03;13.90;;;3.35;;
43861;SDS011;29510;52.140;5.034;2023-07-13T04:38:29;9.80;;;3.58;;
43861;SDS011;29510;52.140;5.034;2023-07-13T04:48:51;12.68;;;4.60;;
43861;SDS011;29510;52.140;5.034;2023-07-13T04:59:14;14.02;;;3.83;;
43861;SDS011;29510;52.140;5.034;2023-07-13T05:09:35;14.63;;;4.53;;
43861;SDS011;29510;52.140;5.034;2023-07-13T05:19:57;13.63;;;5.10;;
43861;SDS011;29510;52.140;5.034;2023-07-13T05:30:18;16.33;;;5.60;;
43861;SDS011;29510;52.140;5.034;2023-07-13T05:40:42;13.23;;;4.68;;
43861;SDS011;29510;52.140;5.034;2023-07-13T05:51:04;13.55;;;4.95;;
43861;SDS011;29510;52.140;5.034;2023-07-13T06:01:25;16.67;;;5.32;;
43861;SDS011;29510;52.140;5.034;2023-07-13T06:11:46;14.52;;;5.72;;
43861;SDS011;29510;52.140;5.034;2023-07-13T06:22:08;16.88;;;5.60;;
43861;SDS011;29510;52.140;5.034;2023-07-13T06:32:29;15.82;;;5.20;;
43861;SDS011;29510;52.140;5.034;2023-07-13T06:42:50;17.88;;;6.78;;
43861;SDS011;29510;52.140;5.034;2023-07-13T06:53:12;16.00;;;6.38;;
43861;SDS011;29510;52.140;5.034;2023-07-13T07:03:33;7.28;;;3.17;;
43861;SDS011;29510;52.140;5.034;2023-07-13T07:13:55;12.07;;;3.20;;
43861;SDS011;29510;52.140;5.034;2023-07-13T07:24:16;8.38;;;3.53;;
43861;SDS011;29510;52.140;5.034;2023-07-13T07:34:38;11.07;;;5.05;;
43861;SDS011;29510;52.140;5.034;2023-07-13T07:44:59;12.45;;;6.05;;
43861;SDS011;29510;52.140;5.034;2023-07-13T07:55:21;16.63;;;7.90;;
43861;SDS011;29510;52.140;5.034;2023-07-13T08:05:43;13.00;;;6.65;;
43861;SDS011;29510;52.140;5.034;2023-07-13T08:16:05;17.30;;;9.15;;
43861;SDS011;29510;52.140;5.034;2023-07-13T08:26:27;9.30;;;5.10;;
43861;SDS011;29510;52.140;5.034;2023-07-13T08:36:48;6.60;;;3.53;;
43861;SDS011;29510;52.140;5.034;2023-07-13T08:47:09;5.82;;;2.65;;
43861;SDS011;29510;52.140;5.034;2023-07-13T08:57:34;10.90;;;3.90;;
43861;SDS011;29510;52.140;5.034;2023-07-13T09:18:37;9.95;;;5.25;;
43861;SDS011;29510;52.140;5.034;2023-07-13T09:29:11;12.05;;;5.90;;
43861;SDS011;29510;52.140;5.034;2023-07-13T09:39:47;10.90;;;6.18;;
43861;SDS011;29510;52.140;5.034;2023-07-13T09:50:15;15.80;;;6.40;;
43861;SDS011;29510;52.140;5.034;2023-07-13T10:00:37;9.52;;;5.00;;
43861;SDS011;29510;52.140;5.034;2023-07-13T10:11:01;9.70;;;5.55;;
43861;SDS011;29510;52.140;5.034;2023-07-13T10:21:35;9.57;;;4.75;;
43861;SDS011;29510;52.140;5.034;2023-07-13T10:32:07;7.55;;;4.82;;
43861;SDS011;29510;52.140;5.034;2023-07-13T10:42:33;6.35;;;3.40;;
43861;SDS011;29510;52.140;5.034;2023-07-13T10:53:02;7.40;;;3.72;;
43861;SDS011;29510;52.140;5.034;2023-07-13T11:03:50;7.78;;;3.05;;
43861;SDS011;29510;52.140;5.034;2023-07-13T11:14:37;6.60;;;3.97;;
43861;SDS011;29510;52.140;5.034;2023-07-13T11:46:22;7.30;;;3.42;;
43861;SDS011;29510;52.140;5.034;2023-07-13T11:56:45;5.45;;;3.45;;
43861;SDS011;29510;52.140;5.034;2023-07-13T12:07:11;4.65;;;2.50;;
43861;SDS011;29510;52.140;5.034;2023-07-13T12:17:36;6.15;;;2.78;;
43861;SDS011;29510;52.140;5.034;2023-07-13T12:27:57;6.28;;;3.00;;
43861;SDS011;29510;52.140;5.034;2023-07-13T12:38:19;5.40;;;2.38;;
43861;SDS011;29510;52.140;5.034;2023-07-13T12:48:43;6.97;;;3.08;;
43861;SDS011;29510;52.140;5.034;2023-07-13T12:59:08;7.07;;;2.85;;
43861;SDS011;29510;52.140;5.034;2023-07-13T13:09:38;6.95;;;2.95;;
43861;SDS011;29510;52.140;5.034;2023-07-13T13:19:59;6.63;;;2.75;;
43861;SDS011;29510;52.140;5.034;2023-07-13T13:30:20;5.20;;;2.28;;
43861;SDS011;29510;52.140;5.034;2023-07-13T13:40:43;6.30;;;2.15;;
43861;SDS011;29510;52.140;5.034;2023-07-13T13:51:13;4.97;;;2.05;;
43861;SDS011;29510;52.140;5.034;2023-07-13T14:01:37;5.30;;;2.47;;
43861;SDS011;29510;52.140;5.034;2023-07-13T14:11:58;4.07;;;1.90;;
43861;SDS011;29510;52.140;5.034;2023-07-13T14:22:20;4.93;;;1.85;;
43861;SDS011;29510;52.140;5.034;2023-07-13T14:32:42;2.53;;;1.63;;
43861;SDS011;29510;52.140;5.034;2023-07-13T14:43:07;4.50;;;1.85;;
43861;SDS011;29510;52.140;5.034;2023-07-13T14:53:31;5.35;;;1.33;;
43861;SDS011;29510;52.140;5.034;2023-07-13T15:03:52;6.40;;;1.40;;
43861;SDS011;29510;52.140;5.034;2023-07-13T15:14:14;4.78;;;1.40;;
43861;SDS011;29510;52.140;5.034;2023-07-13T15:24:35;4.47;;;1.17;;
43861;SDS011;29510;52.140;5.034;2023-07-13T15:34:58;4.38;;;1.33;;
43861;SDS011;29510;52.140;5.034;2023-07-13T15:45:20;5.20;;;1.60;;
43861;SDS011;29510;52.140;5.034;2023-07-13T15:55:43;4.00;;;1.42;;
43861;SDS011;29510;52.140;5.034;2023-07-13T16:06:10;3.83;;;1.38;;
43861;SDS011;29510;52.140;5.034;2023-07-13T16:16:43;3.88;;;1.30;;
43861;SDS011;29510;52.140;5.034;2023-07-13T16:27:07;3.75;;;1.55;;
43861;SDS011;29510;52.140;5.034;2023-07-13T16:37:29;4.15;;;1.52;;
43861;SDS011;29510;52.140;5.034;2023-07-13T16:47:51;4.05;;;1.23;;
43861;SDS011;29510;52.140;5.034;2023-07-13T16:58:13;3.55;;;1.30;;
43861;SDS011;29510;52.140;5.034;2023-07-13T17:08:36;5.35;;;1.75;;
43861;SDS011;29510;52.140;5.034;2023-07-13T17:18:57;2.35;;;1.33;;
43861;SDS011;29510;52.140;5.034;2023-07-13T17:29:19;3.47;;;1.85;;
43861;SDS011;29510;52.140;5.034;2023-07-13T17:39:41;3.53;;;1.60;;
43861;SDS011;29510;52.140;5.034;2023-07-13T17:50:12;4.03;;;1.58;;
43861;SDS011;29510;52.140;5.034;2023-07-13T18:00:36;4.00;;;2.03;;
43861;SDS011;29510;52.140;5.034;2023-07-13T18:11:02;3.30;;;1.30;;
43861;SDS011;29510;52.140;5.034;2023-07-13T18:21:23;4.68;;;1.30;;
43861;SDS011;29510;52.140;5.034;2023-07-13T18:31:46;2.42;;;1.50;;
43861;SDS011;29510;52.140;5.034;2023-07-13T18:42:09;4.82;;;1.38;;
43861;SDS011;29510;52.140;5.034;2023-07-13T18:52:30;3.38;;;1.30;;
43861;SDS011;29510;52.140;5.034;2023-07-13T19:02:52;5.68;;;1.70;;
43861;SDS011;29510;52.140;5.034;2023-07-13T19:13:16;5.07;;;1.73;;
43861;SDS011;29510;52.140;5.034;2023-07-13T19:23:44;4.93;;;1.73;;
43861;SDS011;29510;52.140;5.034;2023-07-13T19:44:31;3.95;;;1.35;;
43861;SDS011;29510;52.140;5.034;2023-07-13T19:54:53;4.05;;;1.65;;
43861;SDS011;29510;52.140;5.034;2023-07-13T20:05:19;3.63;;;1.58;;
43861;SDS011;29510;52.140;5.034;2023-07-13T20:15:42;5.03;;;1.70;;
43861;SDS011;29510;52.140;5.034;2023-07-13T20:26:03;9.45;;;3.50;;
43861;SDS011;29510;52.140;5.034;2023-07-13T20:36:25;6.60;;;1.88;;
43861;SDS011;29510;52.140;5.034;2023-07-13T20:46:46;2.45;;;1.50;;
43861;SDS011;29510;52.140;5.034;2023-07-13T20:57:08;5.55;;;1.65;;
43861;SDS011;29510;52.140;5.034;2023-07-13T21:07:30;5.95;;;1.88;;
43861;SDS011;29510;52.140;5.034;2023-07-13T21:17:53;4.10;;;1.65;;
43861;SDS011;29510;52.140;5.034;2023-07-13T21:28:17;4.72;;;1.52;;
43861;SDS011;29510;52.140;5.034;2023-07-13T21:38:39;3.97;;;1.50;;
43861;SDS011;29510;52.140;5.034;2023-07-13T21:49:02;6.60;;;1.92;;
43861;SDS011;29510;52.140;5.034;2023-07-13T21:59:25;5.03;;;1.40;;
43861;SDS011;29510;52.140;5.034;2023-07-13T22:09:47;3.80;;;1.50;;
43861;SDS011;29510;52.140;5.034;2023-07-13T22:20:08;3.25;;;1.40;;
43861;SDS011;29510;52.140;5.034;2023-07-13T22:30:39;3.72;;;1.65;;
43861;SDS011;29510;52.140;5.034;2023-07-13T22:41:00;3.42;;;1.77;;
43861;SDS011;29510;52.140;5.034;2023-07-13T22:51:22;5.32;;;2.33;;
43861;SDS011;29510;52.140;5.034;2023-07-13T23:01:45;5.00;;;2.50;;
43861;SDS011;29510;52.140;5.034;2023-07-13T23:12:07;4.05;;;1.75;;
43861;SDS011;29510;52.140;5.034;2023-07-13T23:22:30;3.80;;;2.10;;
43861;SDS011;29510;52.140;5.034;2023-07-13T23:32:55;4.28;;;2.15;;
43861;SDS011;29510;52.140;5.034;2023-07-13T23:43:34;5.85;;;2.13;;
43861;SDS011;29510;52.140;5.034;2023-07-13T23:53:56;4.40;;;2.03;;
